createdAt,value
2022-12-31T00:01:08.715Z,2.50
2022-12-31T00:04:30.453Z,1.65
2022-12-31T00:07:53.693Z,2.10
2022-12-31T00:11:16.698Z,2.30
2022-12-31T00:14:38.689Z,2.80
2022-12-31T00:18:01.785Z,2.38
2022-12-31T00:21:24.401Z,2.47
2022-12-31T00:24:48.026Z,1.52
2022-12-31T00:28:09.943Z,1.92
2022-12-31T00:31:33.158Z,2.03
2022-12-31T00:34:55.290Z,1.90
2022-12-31T00:38:17.068Z,2.35
2022-12-31T00:41:40.089Z,1.70
2022-12-31T00:45:04.958Z,1.27
2022-12-31T00:48:27.025Z,1.40
2022-12-31T00:51:51.411Z,1.90
2022-12-31T00:55:13.000Z,2.40
2022-12-31T00:58:36.744Z,1.67
2022-12-31T01:02:01.445Z,2.03
2022-12-31T01:05:23.458Z,1.98
2022-12-31T01:08:45.956Z,1.80
2022-12-31T01:12:08.354Z,1.60
2022-12-31T01:15:34.531Z,2.63
2022-12-31T01:18:59.521Z,2.58
2022-12-31T01:22:21.314Z,1.85
2022-12-31T01:25:43.199Z,2.05
2022-12-31T01:29:06.156Z,2.25
2022-12-31T01:32:29.437Z,2.38
2022-12-31T01:35:51.793Z,2.63
2022-12-31T01:39:14.157Z,2.50
2022-12-31T01:42:36.099Z,2.47
2022-12-31T01:45:58.070Z,1.95
2022-12-31T01:49:24.076Z,1.70
2022-12-31T01:52:52.539Z,1.80
2022-12-31T01:56:15.329Z,2.05
2022-12-31T01:59:37.633Z,1.80
2022-12-31T02:03:00.535Z,1.52
2022-12-31T02:06:27.883Z,1.55
2022-12-31T02:09:50.068Z,1.73
2022-12-31T02:13:12.383Z,1.48
2022-12-31T02:16:43.351Z,2.40
2022-12-31T02:20:26.167Z,2.20
2022-12-31T02:24:15.418Z,2.58
2022-12-31T02:27:50.786Z,2.30
2022-12-31T02:31:18.406Z,2.88
2022-12-31T02:34:48.670Z,2.70
2022-12-31T02:38:15.504Z,2.67
2022-12-31T02:41:52.438Z,2.30
2022-12-31T02:45:21.322Z,2.03
2022-12-31T02:48:52.538Z,3.35
2022-12-31T02:52:22.886Z,3.17
2022-12-31T02:55:52.999Z,2.58
2022-12-31T02:59:38.186Z,2.95
2022-12-31T03:03:02.239Z,2.65
2022-12-31T03:06:25.610Z,2.55
2022-12-31T03:09:50.015Z,2.75
2022-12-31T03:13:11.609Z,2.63
2022-12-31T03:16:34.555Z,2.53
2022-12-31T03:20:14.119Z,3.00
2022-12-31T03:23:40.321Z,2.92
2022-12-31T03:27:04.191Z,2.60
2022-12-31T03:30:26.835Z,2.70
2022-12-31T03:33:48.771Z,2.95
2022-12-31T03:37:10.820Z,2.80
2022-12-31T03:40:38.073Z,2.65
2022-12-31T03:44:02.804Z,3.00
2022-12-31T03:47:24.650Z,2.47
2022-12-31T03:50:46.792Z,2.63
2022-12-31T03:54:08.528Z,2.50
2022-12-31T03:57:31.839Z,2.78
2022-12-31T04:00:54.196Z,2.33
2022-12-31T04:04:16.074Z,2.58
2022-12-31T04:07:37.919Z,2.70
2022-12-31T04:10:59.899Z,3.08
2022-12-31T04:14:23.013Z,3.85
2022-12-31T04:17:45.183Z,2.97
2022-12-31T04:21:07.049Z,3.83
2022-12-31T04:24:29.174Z,3.45
2022-12-31T04:27:50.928Z,3.40
2022-12-31T04:31:14.069Z,2.58
2022-12-31T04:34:36.163Z,3.08
2022-12-31T04:37:57.800Z,2.42
2022-12-31T04:41:20.831Z,2.35
2022-12-31T04:44:42.865Z,2.63
2022-12-31T04:48:06.717Z,4.05
2022-12-31T04:51:29.884Z,2.72
2022-12-31T04:54:51.751Z,2.97
2022-12-31T04:58:14.025Z,4.15
2022-12-31T05:01:36.867Z,2.88
2022-12-31T05:04:59.899Z,3.10
2022-12-31T05:08:22.185Z,3.55
2022-12-31T05:11:44.479Z,3.03
2022-12-31T05:15:07.745Z,2.80
2022-12-31T05:18:30.356Z,3.38
2022-12-31T05:22:07.452Z,3.30
2022-12-31T05:25:29.331Z,3.00
2022-12-31T05:28:55.401Z,3.08
2022-12-31T05:32:17.161Z,3.25
2022-12-31T05:35:39.068Z,3.35
2022-12-31T05:39:02.236Z,2.78
2022-12-31T05:42:24.570Z,3.72
2022-12-31T05:45:46.335Z,2.67
2022-12-31T05:49:08.042Z,2.80
2022-12-31T05:52:29.948Z,2.55
2022-12-31T05:55:53.133Z,2.42
2022-12-31T05:59:14.597Z,3.08
2022-12-31T06:02:36.123Z,2.33
2022-12-31T06:05:57.826Z,5.97
2022-12-31T06:09:21.916Z,3.63
2022-12-31T06:12:45.167Z,3.42
2022-12-31T06:16:07.999Z,3.95
2022-12-31T06:19:29.703Z,3.83
2022-12-31T06:22:51.503Z,4.40
2022-12-31T06:26:13.446Z,5.85
2022-12-31T06:29:40.885Z,4.07
2022-12-31T06:33:02.825Z,6.63
2022-12-31T06:36:24.851Z,6.95
2022-12-31T06:39:46.879Z,6.88
2022-12-31T06:43:08.658Z,5.60
2022-12-31T06:46:32.065Z,6.80
2022-12-31T06:49:54.219Z,9.82
2022-12-31T06:53:18.880Z,5.82
2022-12-31T06:56:41.619Z,7.30
2022-12-31T07:00:04.245Z,11.95
2022-12-31T07:03:37.845Z,12.38
2022-12-31T07:07:06.649Z,6.72
2022-12-31T07:10:42.429Z,6.10
2022-12-31T07:14:20.289Z,4.68
2022-12-31T07:17:53.502Z,4.03
2022-12-31T07:21:20.558Z,5.65
2022-12-31T07:24:42.746Z,4.63
2022-12-31T07:28:17.557Z,6.85
2022-12-31T07:31:54.573Z,7.97
2022-12-31T07:35:23.296Z,5.78
2022-12-31T07:38:56.854Z,7.40
2022-12-31T07:42:25.523Z,7.47
2022-12-31T07:45:53.822Z,5.32
2022-12-31T07:49:16.595Z,10.07
2022-12-31T07:52:39.483Z,6.50
2022-12-31T07:56:05.155Z,6.25
2022-12-31T07:59:42.716Z,10.15
2022-12-31T08:03:18.187Z,8.77
2022-12-31T08:06:47.849Z,5.82
2022-12-31T08:10:18.183Z,5.40
2022-12-31T08:13:44.008Z,5.85
2022-12-31T08:17:06.292Z,4.65
2022-12-31T08:20:28.782Z,5.72
2022-12-31T08:24:02.294Z,5.22
2022-12-31T08:27:37.177Z,7.47
2022-12-31T08:31:05.410Z,5.22
2022-12-31T08:34:34.213Z,6.18
2022-12-31T08:38:03.731Z,4.88
2022-12-31T08:41:30.550Z,8.07
2022-12-31T08:45:02.109Z,5.53
2022-12-31T08:48:34.148Z,5.55
2022-12-31T08:51:56.665Z,5.80
2022-12-31T08:55:21.218Z,6.80
2022-12-31T08:58:51.492Z,5.82
2022-12-31T09:02:48.021Z,5.45
2022-12-31T09:06:18.350Z,6.10
2022-12-31T09:09:54.072Z,5.53
2022-12-31T09:13:25.205Z,5.90
2022-12-31T09:16:55.200Z,6.90
2022-12-31T09:20:22.488Z,5.15
2022-12-31T09:23:46.233Z,5.70
2022-12-31T09:27:15.269Z,5.80
2022-12-31T09:30:47.247Z,7.68
2022-12-31T09:34:17.915Z,7.00
2022-12-31T09:37:46.705Z,6.88
2022-12-31T09:41:16.579Z,7.20
2022-12-31T09:45:11.039Z,7.55
2022-12-31T09:49:03.663Z,6.97
2022-12-31T09:52:37.960Z,9.40
2022-12-31T09:56:06.891Z,8.15
2022-12-31T09:59:36.640Z,8.50
2022-12-31T10:03:18.255Z,6.57
2022-12-31T10:06:50.592Z,8.20
2022-12-31T10:10:19.856Z,8.95
2022-12-31T10:13:57.132Z,9.55
2022-12-31T10:17:32.391Z,9.73
2022-12-31T10:21:16.844Z,9.05
2022-12-31T10:25:02.112Z,9.73
2022-12-31T10:28:32.894Z,8.77
2022-12-31T10:32:15.684Z,9.45
2022-12-31T10:35:44.517Z,8.48
2022-12-31T10:39:16.454Z,8.53
2022-12-31T10:43:05.681Z,9.32
2022-12-31T10:47:01.455Z,8.65
2022-12-31T10:50:50.300Z,10.07
2022-12-31T10:54:45.251Z,8.73
2022-12-31T10:58:41.577Z,9.10
2022-12-31T11:02:14.551Z,9.50
2022-12-31T11:06:06.624Z,8.55
2022-12-31T11:09:54.496Z,7.47
2022-12-31T11:13:47.299Z,7.72
2022-12-31T11:17:26.477Z,7.22
2022-12-31T11:21:07.033Z,7.38
2022-12-31T11:24:43.664Z,6.22
2022-12-31T11:28:28.520Z,10.38
2022-12-31T11:32:07.984Z,8.05
2022-12-31T11:35:51.452Z,8.30
2022-12-31T11:39:41.152Z,8.98
2022-12-31T11:43:12.281Z,9.35
2022-12-31T11:47:05.867Z,8.10
2022-12-31T11:50:36.551Z,7.60
2022-12-31T11:54:41.588Z,7.97
2022-12-31T11:58:13.448Z,9.35
2022-12-31T12:01:45.203Z,8.05
2022-12-31T12:05:11.246Z,9.90
2022-12-31T12:08:35.101Z,10.13
2022-12-31T12:12:01.222Z,9.38
2022-12-31T12:15:26.031Z,9.30
2022-12-31T12:18:50.094Z,24.58
2022-12-31T12:22:15.754Z,10.55
2022-12-31T12:25:40.464Z,10.25
2022-12-31T12:29:11.267Z,10.85
2022-12-31T12:32:32.982Z,18.92
2022-12-31T12:35:54.796Z,13.50
2022-12-31T12:39:23.267Z,10.57
2022-12-31T12:42:52.195Z,10.48
2022-12-31T12:46:22.404Z,10.80
2022-12-31T12:49:47.793Z,20.00
2022-12-31T12:53:21.680Z,11.27
2022-12-31T12:56:53.334Z,13.73
2022-12-31T13:00:20.257Z,20.67
2022-12-31T13:04:33.545Z,11.57
2022-12-31T13:07:58.399Z,12.57
2022-12-31T13:11:31.956Z,18.75
2022-12-31T13:15:03.586Z,13.02
2022-12-31T13:18:40.268Z,16.08
2022-12-31T13:22:09.602Z,65.60
2022-12-31T13:25:39.700Z,155.98
2022-12-31T13:29:06.600Z,29.63
2022-12-31T13:32:39.915Z,38.00
2022-12-31T13:36:05.128Z,28.90
2022-12-31T13:39:30.863Z,21.80
2022-12-31T13:42:59.622Z,18.83
2022-12-31T13:46:29.961Z,26.27
2022-12-31T13:49:59.231Z,30.85
2022-12-31T13:53:27.490Z,24.00
2022-12-31T13:56:50.961Z,35.63
2022-12-31T14:00:21.668Z,21.27
2022-12-31T14:03:52.127Z,19.95
2022-12-31T14:07:19.627Z,19.40
2022-12-31T14:10:49.534Z,26.33
2022-12-31T14:14:25.996Z,18.48
2022-12-31T14:17:52.295Z,21.70
2022-12-31T14:21:19.951Z,19.88
2022-12-31T14:24:46.928Z,20.33
2022-12-31T14:28:16.503Z,24.73
2022-12-31T14:31:58.155Z,28.83
2022-12-31T14:35:36.305Z,37.78
2022-12-31T14:39:16.695Z,33.08
2022-12-31T14:42:51.683Z,34.20
2022-12-31T14:46:21.683Z,104.93
2022-12-31T14:49:54.465Z,42.42
2022-12-31T14:53:23.073Z,33.42
2022-12-31T14:56:46.711Z,28.58
2022-12-31T15:03:45.050Z,43.63
2022-12-31T15:07:17.963Z,23.25
2022-12-31T15:10:49.391Z,23.35
2022-12-31T15:14:49.430Z,35.85
2022-12-31T15:18:30.278Z,26.77
2022-12-31T15:22:04.497Z,29.30
2022-12-31T15:25:33.845Z,29.50
2022-12-31T15:29:01.105Z,117.05
2022-12-31T15:32:32.947Z,33.00
2022-12-31T15:35:57.656Z,26.77
2022-12-31T15:39:41.185Z,29.55
2022-12-31T15:43:13.957Z,24.67
2022-12-31T15:46:42.390Z,24.88
2022-12-31T15:50:07.674Z,29.42
2022-12-31T15:53:34.800Z,24.97
2022-12-31T15:57:01.026Z,22.50
2022-12-31T16:00:26.244Z,28.58
2022-12-31T16:03:53.082Z,30.08
2022-12-31T16:07:15.459Z,23.95
2022-12-31T16:10:37.660Z,55.35
2022-12-31T16:14:01.192Z,34.28
2022-12-31T16:17:29.145Z,32.22
2022-12-31T16:20:52.055Z,36.67
2022-12-31T16:24:29.229Z,23.67
2022-12-31T16:27:52.121Z,23.88
2022-12-31T16:31:17.565Z,22.00
2022-12-31T16:34:39.672Z,26.73
2022-12-31T16:38:12.745Z,20.55
2022-12-31T16:41:44.493Z,23.75
2022-12-31T16:45:28.975Z,21.95
2022-12-31T16:48:57.604Z,34.17
2022-12-31T16:52:28.503Z,24.15
2022-12-31T16:55:57.191Z,32.95
2022-12-31T16:59:26.422Z,24.80
2022-12-31T17:03:01.728Z,28.83
2022-12-31T17:06:25.857Z,30.10
2022-12-31T17:09:47.676Z,22.63
2022-12-31T17:13:27.052Z,25.27
2022-12-31T17:17:03.294Z,25.10
2022-12-31T17:20:28.943Z,38.22
2022-12-31T17:24:01.690Z,32.85
2022-12-31T17:27:23.623Z,32.80
2022-12-31T17:30:45.794Z,28.23
2022-12-31T17:34:30.928Z,24.30
2022-12-31T17:37:52.928Z,26.25
2022-12-31T17:41:25.942Z,24.63
2022-12-31T17:44:47.897Z,25.95
2022-12-31T17:48:13.379Z,29.65
2022-12-31T17:51:35.359Z,25.98
2022-12-31T17:54:57.822Z,24.48
2022-12-31T17:58:29.650Z,24.30
2022-12-31T18:01:51.980Z,29.00
2022-12-31T18:05:19.523Z,21.35
2022-12-31T18:08:41.485Z,20.75
2022-12-31T18:12:05.257Z,26.77
2022-12-31T18:15:28.648Z,28.33
2022-12-31T18:18:51.017Z,23.88
2022-12-31T18:22:17.214Z,23.50
2022-12-31T18:29:02.991Z,17.95
2022-12-31T18:32:28.006Z,14.98
2022-12-31T18:39:32.615Z,14.63
2022-12-31T18:42:56.388Z,17.02
2022-12-31T18:46:24.371Z,15.75
2022-12-31T18:49:48.788Z,22.35
2022-12-31T18:53:19.214Z,16.58
2022-12-31T18:56:48.332Z,17.02
2022-12-31T19:00:13.581Z,16.58
2022-12-31T19:03:35.790Z,24.95
2022-12-31T19:07:00.971Z,18.45
2022-12-31T19:10:23.267Z,14.95
2022-12-31T19:13:45.215Z,14.18
2022-12-31T19:20:28.979Z,11.80
2022-12-31T19:23:55.538Z,11.70
2022-12-31T19:27:17.555Z,10.07
2022-12-31T19:30:39.743Z,10.55
2022-12-31T19:34:01.640Z,10.82
2022-12-31T19:37:23.606Z,10.45
2022-12-31T19:40:47.760Z,10.57
2022-12-31T19:44:15.236Z,10.90
2022-12-31T19:47:36.880Z,11.45
2022-12-31T19:50:58.838Z,10.88
2022-12-31T19:54:20.661Z,9.82
2022-12-31T19:57:44.096Z,10.38
2022-12-31T20:01:06.068Z,10.02
2022-12-31T20:04:28.087Z,8.63
2022-12-31T20:07:50.081Z,9.10
2022-12-31T20:11:14.292Z,8.73
2022-12-31T20:14:37.796Z,8.75
2022-12-31T20:17:59.614Z,8.32
2022-12-31T20:21:25.713Z,8.23
2022-12-31T20:24:47.722Z,7.88
2022-12-31T20:28:09.688Z,6.93
2022-12-31T20:31:33.158Z,6.22
2022-12-31T20:34:55.303Z,6.70
2022-12-31T20:38:17.313Z,6.07
2022-12-31T20:41:39.313Z,6.43
2022-12-31T20:45:01.173Z,4.68
2022-12-31T20:48:24.527Z,4.25
2022-12-31T20:51:51.951Z,4.35
2022-12-31T20:55:15.337Z,4.30
2022-12-31T20:58:38.060Z,3.95
2022-12-31T21:05:49.900Z,15.10
2022-12-31T21:09:12.204Z,8.60
2022-12-31T21:12:53.215Z,4.20
2022-12-31T21:16:15.315Z,3.45
2022-12-31T21:19:36.945Z,3.83
2022-12-31T21:23:00.399Z,4.57
2022-12-31T21:26:22.300Z,4.97
2022-12-31T21:30:16.317Z,5.45
2022-12-31T21:33:26.434Z,3.40
2022-12-31T21:36:48.408Z,3.83
2022-12-31T21:40:13.092Z,4.95
2022-12-31T21:43:35.408Z,3.67
2022-12-31T21:47:41.053Z,5.82
2022-12-31T21:51:08.558Z,8.23
2022-12-31T21:54:48.128Z,3.55
2022-12-31T21:58:28.115Z,9.00
2022-12-31T22:02:08.175Z,146.07
2022-12-31T22:05:30.221Z,129.70
2022-12-31T22:08:54.095Z,112.47
2022-12-31T22:12:15.910Z,183.35
2022-12-31T22:15:39.190Z,45.53
2022-12-31T22:19:03.673Z,24.45
2022-12-31T22:22:25.506Z,13.55
2022-12-31T22:25:47.425Z,9.93
2022-12-31T22:29:09.314Z,7.45
2022-12-31T22:32:32.839Z,7.47
2022-12-31T22:35:59.515Z,6.72
2022-12-31T22:39:44.004Z,8.32
2022-12-31T22:43:03.132Z,7.82
2022-12-31T22:46:26.985Z,9.70
2022-12-31T22:49:50.600Z,8.20
2022-12-31T22:53:13.594Z,8.40
2022-12-31T22:56:35.690Z,10.85
2022-12-31T22:59:57.663Z,7.93
2022-12-31T23:03:19.968Z,8.40
2022-12-31T23:06:45.743Z,10.18
2022-12-31T23:10:26.327Z,8.57
2022-12-31T23:14:06.041Z,8.23
2022-12-31T23:17:46.274Z,7.30
2022-12-31T23:21:28.333Z,8.52
2022-12-31T23:24:51.617Z,8.38
2022-12-31T23:28:17.734Z,7.50
2022-12-31T23:31:40.517Z,8.15
2022-12-31T23:35:09.402Z,7.78
2022-12-31T23:38:31.726Z,10.10
2022-12-31T23:41:55.221Z,8.68
2022-12-31T23:45:17.541Z,9.18
2022-12-31T23:48:40.030Z,9.63
2022-12-31T23:52:02.364Z,11.10
2022-12-31T23:55:24.409Z,10.98
2022-12-31T23:58:47.893Z,9.40
